Time;durP1;ratioP1;P1;durP2;ratioP2;P2;SDS_P1;SDS_P2;PMS_P1;PMS_P2;Temp;Humidity;BMP_temperature;BMP_pressure;BME280_temperature;BME280_humidity;BME280_pressure;Samples;Min_cycle;Max_cycle;Signal;HPM_P1;HPM_P2
2023/01/19 00:02:25;;;;;;;2.42;1.30;;;18.60;55.50;;;;;;5020919;28;20045;-65
2023/01/19 00:04:50;;;;;;;1.98;1.10;;;18.50;55.40;;;;;;5020971;28;20104;-65
2023/01/19 00:07:16;;;;;;;2.92;1.42;;;18.50;55.40;;;;;;5026261;28;20044;-66
2023/01/19 00:09:42;;;;;;;1.85;1.10;;;18.60;55.40;;;;;;5023252;28;20095;-65
2023/01/19 00:12:07;;;;;;;2.08;1.02;;;18.50;55.40;;;;;;5016597;28;20037;-65
2023/01/19 00:14:33;;;;;;;2.17;1.08;;;18.60;55.40;;;;;;5019875;28;20036;-66
2023/01/19 00:17:00;;;;;;;1.80;1.10;;;18.50;55.40;;;;;;5020806;28;20105;-66
2023/01/19 00:19:26;;;;;;;2.15;1.20;;;18.60;55.40;;;;;;5019933;28;20762;-65
2023/01/19 00:21:52;;;;;;;2.40;1.20;;;18.50;55.40;;;;;;5016368;28;20477;-66
2023/01/19 00:24:18;;;;;;;3.15;1.13;;;18.50;55.40;;;;;;5017172;28;20037;-66
2023/01/19 00:26:43;;;;;;;1.73;1.00;;;18.50;55.30;;;;;;5017585;28;20449;-67
2023/01/19 00:29:10;;;;;;;2.47;1.20;;;18.50;55.40;;;;;;5017072;28;20021;-65
2023/01/19 00:31:36;;;;;;;2.20;1.10;;;18.50;55.40;;;;;;5018864;28;20091;-66
2023/01/19 00:34:02;;;;;;;1.90;1.00;;;18.50;55.30;;;;;;5020105;28;20026;-66
2023/01/19 00:36:27;;;;;;;2.83;1.10;;;18.50;55.30;;;;;;5020324;28;20040;-66
2023/01/19 00:38:53;;;;;;;2.03;1.10;;;18.50;55.30;;;;;;5016192;28;20389;-66
2023/01/19 00:42:38;;;;;;;2.13;1.10;;;18.50;55.30;;;;;;5018124;28;20140;-66
2023/01/19 00:44:04;;;;;;;3.03;1.20;;;18.50;55.40;;;;;;5021480;28;20488;-66
2023/01/19 00:46:30;;;;;;;2.33;0.98;;;18.50;55.30;;;;;;5022300;28;20022;-66
2023/01/19 00:48:56;;;;;;;2.17;0.95;;;18.50;55.30;;;;;;5021779;28;20053;-66
2023/01/19 00:51:21;;;;;;;1.80;1.00;;;18.50;55.30;;;;;;5023519;28;20104;-65
2023/01/19 00:53:47;;;;;;;2.10;1.10;;;18.50;55.30;;;;;;5019671;28;20037;-66
2023/01/19 00:56:12;;;;;;;2.05;1.00;;;18.50;55.30;;;;;;5019255;28;20038;-65
2023/01/19 00:58:38;;;;;;;2.28;1.10;;;18.50;55.30;;;;;;5024187;28;20049;-65
2023/01/19 01:01:04;;;;;;;1.92;0.90;;;18.50;55.30;;;;;;5023744;28;20037;-66
2023/01/19 01:03:31;;;;;;;2.08;1.10;;;18.50;55.30;;;;;;5025682;28;20075;-66
2023/01/19 01:05:57;;;;;;;2.85;1.00;;;18.50;55.30;;;;;;5023324;28;20033;-66
2023/01/19 01:08:22;;;;;;;1.95;0.95;;;18.50;55.30;;;;;;5024758;28;20501;-66
2023/01/19 01:10:49;;;;;;;1.65;0.90;;;18.50;55.30;;;;;;5020800;28;20035;-65
2023/01/19 01:13:15;;;;;;;3.65;1.40;;;18.50;55.30;;;;;;5023202;28;20536;-66
2023/01/19 01:15:41;;;;;;;2.03;1.10;;;18.50;55.30;;;;;;5020050;28;20906;-66
2023/01/19 01:18:07;;;;;;;1.90;1.10;;;18.40;55.20;;;;;;5019581;28;20041;-66
2023/01/19 01:20:33;;;;;;;2.47;0.98;;;18.50;55.20;;;;;;5024627;28;20160;-65
2023/01/19 01:22:59;;;;;;;2.08;1.00;;;18.40;55.20;;;;;;5022511;28;20060;-66
2023/01/19 01:25:26;;;;;;;1.55;1.00;;;18.40;55.20;;;;;;5019406;28;20061;-66
2023/01/19 01:27:53;;;;;;;1.98;0.93;;;18.50;55.20;;;;;;5023820;28;20032;-66
2023/01/19 01:30:18;;;;;;;2.40;1.02;;;18.40;55.10;;;;;;5022390;28;20432;-66
2023/01/19 01:32:44;;;;;;;1.63;0.90;;;18.50;55.20;;;;;;5024953;28;20022;-66
2023/01/19 01:35:11;;;;;;;1.70;0.90;;;18.50;55.20;;;;;;5021598;28;20030;-66
2023/01/19 01:37:37;;;;;;;2.05;0.98;;;18.50;55.20;;;;;;5022815;28;20357;-66
2023/01/19 01:40:04;;;;;;;1.40;0.90;;;18.50;55.20;;;;;;5017490;28;20036;-66
2023/01/19 01:42:31;;;;;;;2.33;1.15;;;18.40;55.20;;;;;;5021254;28;20418;-66
2023/01/19 01:44:59;;;;;;;2.13;0.82;;;18.40;55.20;;;;;;5016707;28;20056;-66
2023/01/19 01:47:46;;;;;;;2.90;1.17;;;18.40;55.10;;;;;;5017380;28;20397;-66
2023/01/19 01:50:16;;;;;;;2.30;1.00;;;18.40;55.10;;;;;;5019817;28;20112;-66
2023/01/19 01:52:48;;;;;;;2.40;1.20;;;18.40;55.20;;;;;;5020103;28;20057;-66
2023/01/19 01:55:16;;;;;;;2.30;1.02;;;18.40;55.10;;;;;;5021827;28;20030;-66
2023/01/19 01:57:48;;;;;;;1.98;1.05;;;18.40;55.10;;;;;;5021481;28;20132;-66
2023/01/19 02:00:14;;;;;;;1.75;1.20;;;18.40;55.20;;;;;;5023012;28;20030;-66
2023/01/19 02:02:53;;;;;;;1.92;0.95;;;18.40;55.10;;;;;;5021614;28;20029;-68
2023/01/19 02:05:34;;;;;;;1.85;1.00;;;18.40;55.20;;;;;;5021933;28;20079;-66
2023/01/19 02:13:47;;;;;;;1.67;0.90;;;18.40;55.10;;;;;;5021910;28;20102;-66
2023/01/19 02:16:15;;;;;;;1.75;0.90;;;18.40;55.10;;;;;;5020443;28;20438;-66
2023/01/19 02:18:42;;;;;;;2.00;1.00;;;18.40;55.10;;;;;;5021037;28;20079;-67
2023/01/19 02:21:41;;;;;;;1.60;0.90;;;18.40;55.10;;;;;;5021877;28;20506;-67
2023/01/19 02:24:07;;;;;;;2.40;1.20;;;18.40;55.10;;;;;;5018387;28;20152;-66
2023/01/19 02:26:39;;;;;;;1.70;1.00;;;18.40;55.70;;;;;;5017240;28;20545;-66
2023/01/19 02:29:11;;;;;;;1.88;0.90;;;18.40;55.10;;;;;;5021610;28;20149;-66
2023/01/19 02:31:38;;;;;;;1.77;1.00;;;18.30;55.10;;;;;;5016948;28;20488;-67
2023/01/19 02:34:06;;;;;;;1.92;1.00;;;18.30;55.10;;;;;;5020349;28;20026;-66
2023/01/19 02:36:50;;;;;;;2.10;1.20;;;18.40;55.10;;;;;;5020111;28;20481;-66
2023/01/19 02:39:18;;;;;;;1.55;0.93;;;18.40;55.10;;;;;;5018831;28;20040;-66
2023/01/19 02:41:52;;;;;;;2.03;1.00;;;18.40;55.20;;;;;;5021257;28;20137;-66
2023/01/19 02:44:19;;;;;;;1.50;0.90;;;18.30;55.10;;;;;;5018045;28;20195;-67
2023/01/19 02:46:46;;;;;;;1.90;1.00;;;18.30;55.10;;;;;;5020722;28;20017;-66
2023/01/19 02:49:12;;;;;;;2.05;1.00;;;18.40;55.10;;;;;;5026951;28;20385;-66
2023/01/19 02:51:38;;;;;;;2.13;1.20;;;18.30;55.10;;;;;;5019222;28;20028;-66
2023/01/19 02:54:03;;;;;;;1.90;1.00;;;18.30;55.10;;;;;;5018548;28;20025;-66
2023/01/19 02:56:48;;;;;;;1.45;0.90;;;18.30;55.10;;;;;;5020172;28;20044;-66
2023/01/19 02:59:25;;;;;;;1.95;1.02;;;18.30;55.10;;;;;;5021368;28;20040;-66
2023/01/19 03:02:09;;;;;;;1.77;0.80;;;18.30;55.10;;;;;;5032994;28;20037;-66
2023/01/19 03:04:59;;;;;;;1.63;0.90;;;18.30;55.10;;;;;;5016552;28;20577;-66
2023/01/19 03:07:40;;;;;;;1.65;0.90;;;18.30;55.10;;;;;;5020413;28;20035;-66
2023/01/19 03:10:14;;;;;;;1.50;0.90;;;18.30;55.10;;;;;;5019299;28;20497;-67
2023/01/19 03:12:53;;;;;;;1.20;0.82;;;18.30;55.10;;;;;;5020770;28;20025;-66
2023/01/19 03:15:26;;;;;;;1.40;0.80;;;18.30;55.10;;;;;;5021060;28;20029;-66
2023/01/19 03:17:52;;;;;;;2.08;1.17;;;18.30;55.10;;;;;;5020634;28;20030;-67
2023/01/19 03:20:23;;;;;;;1.23;0.80;;;18.30;55.10;;;;;;5014939;28;20087;-67
2023/01/19 03:23:04;;;;;;;1.85;0.95;;;18.30;55.10;;;;;;5021182;28;20022;-66
2023/01/19 03:25:34;;;;;;;2.55;0.80;;;18.30;55.10;;;;;;5014640;28;20487;-66
2023/01/19 03:28:02;;;;;;;1.67;0.95;;;18.30;55.10;;;;;;5019732;28;20053;-66
2023/01/19 03:30:35;;;;;;;1.85;0.90;;;18.30;55.10;;;;;;5019139;28;20484;-66
2023/01/19 03:33:19;;;;;;;1.67;0.80;;;18.30;55.10;;;;;;5019614;28;20458;-66
2023/01/19 03:35:51;;;;;;;1.27;0.77;;;18.30;55.10;;;;;;5020151;28;20186;-66
2023/01/19 03:38:25;;;;;;;1.00;0.70;;;18.30;55.10;;;;;;5018613;28;20028;-65
2023/01/19 03:40:58;;;;;;;1.60;0.90;;;18.30;55.10;;;;;;5020780;28;20334;-66
2023/01/19 03:43:25;;;;;;;1.73;0.90;;;18.20;55.10;;;;;;5019495;28;20026;-66
2023/01/19 03:45:52;;;;;;;1.70;0.77;;;18.20;55.10;;;;;;5020053;28;20033;-66
2023/01/19 03:48:20;;;;;;;1.63;0.73;;;18.20;55.10;;;;;;5018392;28;20100;-67
2023/01/19 03:50:46;;;;;;;1.35;0.77;;;18.20;55.10;;;;;;5016072;28;20029;-66
2023/01/19 03:53:14;;;;;;;1.45;0.63;;;18.20;55.10;;;;;;5018605;28;20026;-66
2023/01/19 03:55:43;;;;;;;1.42;0.80;;;18.20;55.10;;;;;;5014333;28;20117;-67
2023/01/19 03:58:09;;;;;;;1.65;0.90;;;18.20;55.10;;;;;;5013568;28;20032;-66
2023/01/19 04:00:35;;;;;;;1.10;0.70;;;18.20;55.60;;;;;;5016504;28;20025;-67
2023/01/19 04:03:04;;;;;;;1.52;0.80;;;18.20;55.10;;;;;;5018228;28;20057;-67
2023/01/19 04:05:30;;;;;;;;;;;18.20;55.10;;;;;;5015872;28;20045;-66
2023/01/19 04:07:56;;;;;;;1.40;0.80;;;18.20;55.10;;;;;;5020155;28;19905;-66
2023/01/19 04:10:21;;;;;;;1.42;0.82;;;18.20;55.10;;;;;;5017065;28;20037;-66
2023/01/19 04:12:47;;;;;;;1.40;0.75;;;18.20;55.10;;;;;;5015894;28;20032;-67
2023/01/19 04:15:14;;;;;;;1.15;0.80;;;18.20;55.10;;;;;;5020923;28;20834;-66
2023/01/19 04:17:40;;;;;;;1.67;0.80;;;18.20;55.10;;;;;;5024470;28;20382;-67
2023/01/19 04:20:07;;;;;;;0.93;0.70;;;18.20;55.10;;;;;;5022184;28;20049;-67
2023/01/19 04:22:32;;;;;;;1.58;0.82;;;18.20;55.10;;;;;;5020293;28;20411;-67
2023/01/19 04:24:58;;;;;;;1.30;0.80;;;18.20;55.10;;;;;;5019494;28;20048;-67
2023/01/19 04:27:24;;;;;;;1.30;0.70;;;18.20;55.10;;;;;;5022647;28;20036;-66
2023/01/19 04:29:50;;;;;;;1.23;0.70;;;18.20;55.10;;;;;;5023198;28;20022;-66
2023/01/19 04:32:17;;;;;;;1.05;0.70;;;18.20;55.10;;;;;;5022161;28;20056;-66
2023/01/19 04:34:42;;;;;;;1.38;0.70;;;18.20;55.10;;;;;;5021257;28;20021;-66
2023/01/19 04:37:08;;;;;;;1.48;0.80;;;18.20;55.20;;;;;;5023564;28;20040;-66
2023/01/19 04:39:34;;;;;;;1.05;0.80;;;18.20;55.10;;;;;;5023357;28;20049;-66
2023/01/19 04:41:59;;;;;;;1.13;0.70;;;18.20;55.10;;;;;;5020747;28;20033;-66
2023/01/19 04:44:26;;;;;;;1.25;0.80;;;18.20;55.20;;;;;;5021738;28;20033;-66
2023/01/19 04:46:52;;;;;;;1.05;0.75;;;18.20;55.10;;;;;;5021672;28;20474;-66
2023/01/19 04:49:18;;;;;;;1.77;0.80;;;18.20;55.20;;;;;;5024679;28;20433;-66
2023/01/19 04:51:44;;;;;;;0.88;0.70;;;18.20;55.20;;;;;;5021416;28;20034;-66
2023/01/19 04:54:10;;;;;;;1.48;0.85;;;18.20;55.20;;;;;;5019433;28;20033;-66
2023/01/19 04:56:35;;;;;;;1.25;0.88;;;18.20;55.20;;;;;;5023970;28;20097;-66
2023/01/19 04:59:01;;;;;;;1.40;0.80;;;18.20;55.20;;;;;;5021344;28;20053;-66
2023/01/19 05:01:27;;;;;;;1.35;0.80;;;18.20;55.20;;;;;;5018710;28;20037;-66
2023/01/19 05:03:52;;;;;;;0.95;0.70;;;18.20;55.20;;;;;;5023401;28;20035;-66
2023/01/19 05:06:18;;;;;;;1.00;0.70;;;18.20;55.20;;;;;;5023649;28;20499;-66
2023/01/19 05:08:44;;;;;;;1.08;0.80;;;18.20;55.20;;;;;;5023152;28;20544;-66
2023/01/19 05:11:09;;;;;;;2.25;0.80;;;18.20;55.20;;;;;;5020008;28;20037;-66
2023/01/19 05:13:35;;;;;;;1.60;0.80;;;18.20;55.20;;;;;;5022235;28;20025;-67
2023/01/19 05:16:01;;;;;;;1.52;0.90;;;18.20;55.20;;;;;;5022547;28;20619;-66
2023/01/19 05:18:27;;;;;;;1.58;0.82;;;18.20;55.20;;;;;;5020962;28;20534;-66
2023/01/19 05:20:52;;;;;;;1.30;0.70;;;18.20;55.20;;;;;;5020181;28;20026;-66
2023/01/19 05:23:18;;;;;;;1.05;0.60;;;18.20;55.20;;;;;;5021538;28;20076;-66
2023/01/19 05:25:43;;;;;;;1.33;0.70;;;18.20;55.20;;;;;;5021568;28;20021;-66
2023/01/19 05:28:10;;;;;;;1.00;0.70;;;18.20;55.20;;;;;;5022159;28;20022;-67
2023/01/19 05:30:35;;;;;;;1.80;0.70;;;18.20;55.20;;;;;;5022954;28;20037;-66
2023/01/19 05:33:01;;;;;;;1.15;0.70;;;18.20;55.30;;;;;;5017630;28;20393;-66
2023/01/19 05:35:27;;;;;;;1.23;0.65;;;18.20;55.40;;;;;;5021967;28;20425;-66
2023/01/19 05:37:52;;;;;;;1.20;0.80;;;18.20;55.40;;;;;;5022928;28;20072;-66
2023/01/19 05:40:18;;;;;;;1.90;0.90;;;18.30;55.40;;;;;;5021062;28;20062;-66
2023/01/19 05:42:44;;;;;;;1.27;0.70;;;18.30;55.40;;;;;;5022797;28;20491;-66
2023/01/19 05:45:10;;;;;;;0.77;0.68;;;18.30;55.40;;;;;;5023604;28;20460;-66
2023/01/19 05:47:36;;;;;;;0.90;0.65;;;18.20;55.30;;;;;;5022866;28;20469;-66
2023/01/19 05:50:02;;;;;;;1.65;0.90;;;18.30;55.40;;;;;;5023079;28;20148;-66
2023/01/19 05:52:27;;;;;;;0.93;0.75;;;18.20;55.40;;;;;;5021004;28;20438;-66
2023/01/19 05:54:54;;;;;;;0.80;0.63;;;18.20;55.40;;;;;;5021012;28;20063;-66
2023/01/19 05:57:20;;;;;;;0.90;0.70;;;18.20;55.40;;;;;;5023172;28;20036;-67
2023/01/19 05:59:45;;;;;;;1.65;0.90;;;18.20;55.40;;;;;;5017313;28;20037;-66
2023/01/19 06:02:11;;;;;;;2.20;0.80;;;18.30;55.50;;;;;;5020644;28;20370;-66
2023/01/19 06:04:37;;;;;;;1.35;0.80;;;18.30;55.50;;;;;;5022263;28;20045;-66
2023/01/19 06:07:03;;;;;;;1.48;0.80;;;18.30;55.50;;;;;;5019735;28;20497;-66
2023/01/19 06:09:29;;;;;;;0.90;0.63;;;18.30;55.60;;;;;;5018843;28;20105;-66
2023/01/19 06:11:56;;;;;;;1.35;0.90;;;18.20;55.50;;;;;;5020658;28;20167;-66
2023/01/19 06:14:22;;;;;;;1.23;0.80;;;18.30;55.60;;;;;;5021734;28;20029;-67
2023/01/19 06:16:47;;;;;;;1.25;0.77;;;18.30;55.60;;;;;;5024260;28;20030;-66
2023/01/19 06:19:13;;;;;;;1.55;0.70;;;18.30;55.80;;;;;;5020575;28;20499;-67
2023/01/19 06:21:39;;;;;;;1.13;0.80;;;18.20;55.50;;;;;;5020826;28;20028;-66
2023/01/19 06:24:05;;;;;;;1.30;0.73;;;18.30;55.60;;;;;;5035228;28;20033;-66
2023/01/19 06:26:30;;;;;;;1.08;0.80;;;18.20;55.50;;;;;;5019177;28;20026;-66
2023/01/19 06:28:56;;;;;;;1.05;0.77;;;18.30;55.60;;;;;;5017609;28;20034;-66
2023/01/19 06:31:22;;;;;;;1.15;0.65;;;18.30;55.60;;;;;;5027258;28;20025;-66
2023/01/19 06:33:47;;;;;;;1.15;0.70;;;18.30;55.50;;;;;;5020649;28;20095;-66
2023/01/19 06:36:13;;;;;;;1.08;0.80;;;18.30;55.50;;;;;;5018927;28;20029;-66
2023/01/19 06:38:39;;;;;;;1.17;0.70;;;18.30;55.40;;;;;;5019678;28;20034;-67
2023/01/19 06:41:04;;;;;;;1.30;0.90;;;18.30;55.50;;;;;;5019333;28;20446;-66
2023/01/19 06:43:30;;;;;;;1.10;0.70;;;18.30;55.40;;;;;;5023337;28;20057;-66
2023/01/19 06:45:59;;;;;;;1.20;0.70;;;18.30;55.50;;;;;;5020823;28;20477;-66
2023/01/19 06:48:24;;;;;;;2.17;0.85;;;18.30;55.50;;;;;;5017066;28;20022;-66
2023/01/19 06:50:50;;;;;;;1.73;0.80;;;18.30;55.50;;;;;;5020387;28;20036;-66
2023/01/19 06:53:18;;;;;;;0.90;0.60;;;18.30;55.50;;;;;;5021125;28;20110;-66
2023/01/19 06:55:44;;;;;;;1.85;0.82;;;18.30;55.40;;;;;;5015780;28;20064;-66
2023/01/19 06:58:10;;;;;;;1.55;0.90;;;18.30;55.50;;;;;;5020885;28;20088;-66
2023/01/19 07:00:36;;;;;;;2.35;0.70;;;18.30;55.50;;;;;;5027616;28;20536;-66
2023/01/19 07:03:01;;;;;;;1.10;0.70;;;18.30;55.40;;;;;;5016857;28;20108;-66
2023/01/19 07:05:27;;;;;;;1.48;0.80;;;18.30;55.40;;;;;;5018558;28;20466;-66
2023/01/19 07:07:54;;;;;;;1.60;0.90;;;18.30;55.40;;;;;;5018215;28;20022;-66
2023/01/19 07:10:20;;;;;;;1.85;0.85;;;18.30;55.40;;;;;;5025772;28;20508;-66
2023/01/19 07:12:46;;;;;;;1.33;0.73;;;18.30;55.40;;;;;;5023277;28;20040;-66
2023/01/19 07:15:14;;;;;;;1.58;0.80;;;18.30;55.40;;;;;;5020307;28;20030;-67
2023/01/19 07:17:41;;;;;;;1.75;0.85;;;18.30;55.40;;;;;;5020570;28;20026;-67
2023/01/19 07:20:10;;;;;;;0.95;0.70;;;18.30;55.40;;;;;;5018032;28;20048;-66
2023/01/19 07:22:35;;;;;;;1.20;0.80;;;18.30;55.40;;;;;;5019993;28;20026;-66
2023/01/19 07:25:01;;;;;;;1.30;0.70;;;18.30;55.30;;;;;;5017952;28;20049;-66
2023/01/19 07:27:27;;;;;;;1.33;0.80;;;18.30;55.80;;;;;;5020898;28;20097;-66
2023/01/19 07:29:53;;;;;;;1.92;0.80;;;18.30;55.30;;;;;;5024132;28;20026;-66
2023/01/19 07:32:18;;;;;;;1.73;0.70;;;18.30;55.30;;;;;;5016684;28;20106;-66
2023/01/19 07:34:44;;;;;;;1.05;0.80;;;18.30;55.30;;;;;;5022465;28;20476;-66
2023/01/19 07:37:10;;;;;;;1.70;0.90;;;18.30;55.80;;;;;;5017518;28;20681;-66
2023/01/19 07:39:36;;;;;;;1.20;0.80;;;18.30;55.30;;;;;;5017101;28;20030;-66
2023/01/19 07:42:01;;;;;;;1.20;0.70;;;18.30;55.30;;;;;;5019777;28;20696;-66
2023/01/19 07:44:27;;;;;;;1.33;0.70;;;18.30;55.30;;;;;;5015844;28;20033;-66
2023/01/19 07:46:53;;;;;;;1.50;0.80;;;18.30;55.30;;;;;;5017205;28;20022;-66
2023/01/19 07:49:19;;;;;;;1.77;0.80;;;18.30;55.30;;;;;;5017764;28;20037;-66
2023/01/19 07:51:45;;;;;;;1.23;0.75;;;18.30;55.30;;;;;;5033840;28;20025;-66
2023/01/19 07:54:11;;;;;;;1.90;0.80;;;18.30;55.20;;;;;;5025282;28;20477;-66
2023/01/19 07:56:36;;;;;;;3.72;0.82;;;18.30;55.30;;;;;;5024943;28;20033;-66
2023/01/19 07:59:02;;;;;;;1.15;0.70;;;18.30;55.20;;;;;;5026625;28;20045;-67
2023/01/19 08:01:28;;;;;;;1.42;0.77;;;18.30;55.40;;;;;;5022695;28;20597;-67
2023/01/19 08:03:54;;;;;;;1.80;0.90;;;18.30;55.30;;;;;;5022605;28;20465;-68
2023/01/19 08:06:22;;;;;;;1.52;0.90;;;18.30;55.30;;;;;;5021798;28;20029;-68
2023/01/19 08:08:48;;;;;;;1.73;0.90;;;18.30;55.40;;;;;;5024548;28;20432;-67
2023/01/19 08:11:14;;;;;;;1.25;0.80;;;18.30;55.30;;;;;;5024492;28;20029;-68
2023/01/19 08:13:40;;;;;;;1.88;0.82;;;18.30;55.40;;;;;;5021102;28;20041;-67
2023/01/19 08:16:05;;;;;;;1.90;0.90;;;18.30;55.30;;;;;;5021293;28;20448;-68
2023/01/19 08:18:31;;;;;;;2.13;0.90;;;18.30;55.30;;;;;;5020405;28;20025;-67
2023/01/19 08:21:00;;;;;;;2.00;0.80;;;18.30;55.30;;;;;;5020456;28;20413;-68
2023/01/19 08:23:26;;;;;;;2.20;0.90;;;18.30;55.30;;;;;;5022955;28;20061;-68
2023/01/19 08:25:53;;;;;;;1.85;1.08;;;18.30;55.30;;;;;;5018026;28;20420;-67
2023/01/19 08:28:20;;;;;;;2.38;0.90;;;18.30;55.30;;;;;;5027660;28;20025;-68
2023/01/19 08:30:52;;;;;;;2.30;0.90;;;18.30;55.20;;;;;;5024947;28;20091;-68
2023/01/19 08:33:21;;;;;;;1.83;1.00;;;18.30;55.20;;;;;;5024222;28;20026;-68
2023/01/19 08:35:52;;;;;;;2.78;0.82;;;18.30;55.20;;;;;;5022166;28;20030;-68
2023/01/19 08:38:18;;;;;;;2.33;1.02;;;18.30;55.30;;;;;;5037853;28;20168;-68
2023/01/19 08:40:44;;;;;;;2.33;0.93;;;18.30;55.20;;;;;;5024226;28;20499;-68
2023/01/19 08:43:12;;;;;;;2.30;0.95;;;18.30;55.20;;;;;;5023366;28;20013;-67
2023/01/19 08:45:44;;;;;;;1.40;0.80;;;18.30;55.20;;;;;;5022624;28;20030;-68
2023/01/19 08:48:09;;;;;;;1.25;0.70;;;18.40;55.20;;;;;;5020179;28;20021;-68
2023/01/19 08:50:35;;;;;;;1.52;0.75;;;18.30;55.10;;;;;;5022883;28;20036;-67
2023/01/19 08:53:02;;;;;;;2.15;0.85;;;18.40;55.10;;;;;;5022391;28;20117;-68
2023/01/19 08:55:28;;;;;;;2.42;1.00;;;18.30;55.10;;;;;;5024613;28;20037;-68
2023/01/19 08:57:56;;;;;;;1.92;1.00;;;18.30;55.10;;;;;;5018941;28;20035;-68
2023/01/19 09:00:23;;;;;;;2.35;1.00;;;18.30;55.10;;;;;;5020562;28;20037;-68
2023/01/19 09:02:50;;;;;;;2.30;1.00;;;18.30;55.00;;;;;;5020572;28;20037;-68
2023/01/19 09:05:15;;;;;;;1.90;0.90;;;18.30;55.00;;;;;;5021906;28;20163;-68
2023/01/19 09:07:43;;;;;;;2.08;0.98;;;18.30;55.00;;;;;;5023570;28;20124;-67
2023/01/19 09:10:09;;;;;;;1.33;0.80;;;18.30;55.00;;;;;;5023079;28;20508;-68
2023/01/19 09:12:35;;;;;;;2.30;0.95;;;18.40;55.00;;;;;;5028018;28;20080;-66
2023/01/19 09:15:00;;;;;;;2.20;1.10;;;18.40;55.00;;;;;;5023459;28;20342;-68
2023/01/19 09:17:26;;;;;;;2.38;1.10;;;18.30;55.00;;;;;;5028836;28;20030;-67
2023/01/19 09:19:51;;;;;;;4.18;1.42;;;18.30;55.00;;;;;;5026090;28;20026;-67
2023/01/19 09:22:17;;;;;;;2.78;1.25;;;18.40;55.00;;;;;;5019994;28;20025;-67
2023/01/19 09:24:42;;;;;;;2.00;1.08;;;18.30;54.90;;;;;;5026276;28;20030;-67
2023/01/19 09:27:08;;;;;;;1.88;0.90;;;18.40;54.90;;;;;;5028843;28;20124;-67
2023/01/19 09:29:35;;;;;;;2.38;1.13;;;18.30;54.90;;;;;;5021524;28;20026;-67
2023/01/19 09:32:00;;;;;;;1.67;0.80;;;18.40;54.90;;;;;;5028052;28;20037;-66
2023/01/19 09:34:26;;;;;;;2.08;1.10;;;18.30;54.80;;;;;;5020205;28;20098;-67
2023/01/19 09:36:52;;;;;;;1.95;0.98;;;18.30;54.80;;;;;;5021150;28;20030;-67
2023/01/19 09:39:17;;;;;;;2.47;1.17;;;18.30;54.80;;;;;;5025212;28;20118;-67
2023/01/19 09:41:48;;;;;;;2.33;1.00;;;18.30;54.80;;;;;;5018316;28;20132;-67
2023/01/19 09:44:27;;;;;;;2.03;1.10;;;18.40;54.80;;;;;;5019615;28;20032;-67
2023/01/19 09:46:52;;;;;;;2.50;1.10;;;18.40;54.80;;;;;;5024841;28;20072;-67
2023/01/19 09:49:41;;;;;;;2.28;1.05;;;18.40;54.80;;;;;;5020705;28;20068;-66
2023/01/19 09:52:12;;;;;;;1.85;0.90;;;18.40;54.80;;;;;;5019359;28;20053;-66
2023/01/19 09:54:52;;;;;;;1.75;0.93;;;18.40;54.80;;;;;;5021583;28;20065;-66
2023/01/19 09:57:19;;;;;;;1.15;0.70;;;18.40;54.80;;;;;;5019779;28;20038;-67
2023/01/19 09:59:48;;;;;;;2.17;1.02;;;18.40;54.70;;;;;;5022366;28;20037;-66
2023/01/19 10:02:32;;;;;;;2.25;1.00;;;18.30;54.70;;;;;;5022817;28;20468;-66
2023/01/19 10:05:20;;;;;;;2.05;1.10;;;18.40;54.70;;;;;;5021157;28;20281;-67
2023/01/19 10:08:07;;;;;;;1.67;0.90;;;18.40;54.70;;;;;;5020811;28;20022;-66
2023/01/19 10:10:34;;;;;;;2.45;1.10;;;18.40;54.70;;;;;;5020304;28;20054;-66
2023/01/19 10:13:09;;;;;;;2.08;0.90;;;18.40;54.70;;;;;;5020470;28;20033;-66
2023/01/19 10:15:56;;;;;;;2.45;1.05;;;18.40;54.60;;;;;;5022324;28;20105;-66
2023/01/19 10:18:33;;;;;;;2.00;1.00;;;18.40;54.50;;;;;;5019837;28;20088;-67
2023/01/19 10:21:05;;;;;;;2.10;1.08;;;18.40;54.50;;;;;;5019825;28;20105;-66
2023/01/19 10:23:39;;;;;;;1.73;0.90;;;18.40;54.40;;;;;;5017646;28;20038;-66
2023/01/19 10:26:12;;;;;;;2.58;0.90;;;18.40;54.50;;;;;;5027514;28;20026;-66
2023/01/19 10:28:39;;;;;;;1.50;0.90;;;18.40;54.50;;;;;;5018992;28;20473;-66
2023/01/19 10:31:08;;;;;;;2.38;1.15;;;18.40;54.50;;;;;;5022155;28;20057;-66
2023/01/19 10:33:34;;;;;;;1.73;0.90;;;18.40;54.50;;;;;;5015591;28;20428;-65
2023/01/19 10:36:15;;;;;;;1.35;0.90;;;18.40;54.50;;;;;;5018278;28;20112;-66
2023/01/19 10:38:41;;;;;;;1.25;0.80;;;18.40;54.50;;;;;;5020011;28;20481;-66
2023/01/19 10:41:19;;;;;;;1.73;0.90;;;18.40;54.50;;;;;;5015289;28;20036;-66
2023/01/19 10:43:45;;;;;;;4.55;1.00;;;18.40;54.50;;;;;;5019772;28;20556;-66
2023/01/19 10:46:19;;;;;;;1.70;0.80;;;18.40;54.50;;;;;;5017665;28;20389;-66
2023/01/19 10:48:48;;;;;;;1.58;0.93;;;18.40;54.50;;;;;;5018145;28;20540;-64
2023/01/19 10:51:14;;;;;;;1.35;0.80;;;18.40;54.50;;;;;;5019105;28;20108;-66
2023/01/19 10:53:51;;;;;;;1.63;0.80;;;18.40;54.50;;;;;;5021326;28;20532;-66
2023/01/19 10:56:27;;;;;;;1.35;0.85;;;18.40;54.50;;;;;;5016747;28;20112;-66
2023/01/19 10:58:52;;;;;;;1.42;0.73;;;18.40;54.50;;;;;;5018192;28;20389;-65
2023/01/19 11:01:22;;;;;;;0.88;0.70;;;18.40;54.50;;;;;;5019218;28;20025;-65
2023/01/19 11:03:48;;;;;;;1.42;0.80;;;18.40;54.50;;;;;;5021656;28;20057;-66
2023/01/19 11:06:20;;;;;;;1.02;0.80;;;18.40;54.50;;;;;;5020885;28;20033;-66
2023/01/19 11:08:47;;;;;;;1.58;0.80;;;18.40;54.40;;;;;;5020768;28;20113;-66
2023/01/19 11:11:13;;;;;;;1.23;0.80;;;18.40;54.40;;;;;;5020241;28;20033;-66
2023/01/19 11:13:40;;;;;;;1.60;0.90;;;18.40;54.40;;;;;;5020591;28;20033;-66
2023/01/19 11:16:13;;;;;;;1.77;0.90;;;18.40;54.40;;;;;;5025865;28;20036;-65
2023/01/19 11:18:41;;;;;;;2.10;0.85;;;18.40;54.40;;;;;;5022083;28;20028;-66
2023/01/19 11:21:15;;;;;;;1.48;0.90;;;18.40;54.40;;;;;;5019428;28;20061;-66
2023/01/19 11:23:49;;;;;;;2.13;0.90;;;18.40;54.40;;;;;;5016853;28;20095;-66
2023/01/19 11:26:30;;;;;;;1.48;0.80;;;18.40;54.40;;;;;;5018838;28;20035;-66
2023/01/19 11:28:57;;;;;;;2.15;1.05;;;18.40;54.40;;;;;;5019634;28;20025;-66
2023/01/19 11:31:30;;;;;;;1.40;0.80;;;18.40;54.40;;;;;;5017387;28;20054;-65
2023/01/19 11:34:04;;;;;;;1.25;0.75;;;18.40;54.40;;;;;;5020776;28;20095;-65
2023/01/19 11:36:35;;;;;;;1.23;0.73;;;18.40;54.40;;;;;;5017563;28;20144;-66
2023/01/19 11:39:22;;;;;;;1.52;0.80;;;18.40;54.40;;;;;;5018242;28;20437;-65
2023/01/19 11:41:53;;;;;;;1.90;0.90;;;18.40;54.30;;;;;;5017687;28;20037;-66
2023/01/19 11:44:23;;;;;;;1.27;0.80;;;18.40;54.30;;;;;;5023426;28;20049;-66
2023/01/19 11:46:59;;;;;;;2.17;1.00;;;18.40;54.30;;;;;;5020761;28;20355;-66
2023/01/19 11:49:24;;;;;;;2.22;0.90;;;18.40;54.30;;;;;;5020535;28;20129;-66
2023/01/19 11:52:17;;;;;;;1.98;1.05;;;18.40;54.30;;;;;;5020159;28;20132;-65
2023/01/19 11:54:51;;;;;;;2.92;1.17;;;18.40;54.40;;;;;;5017351;28;20044;-65
2023/01/19 11:57:16;;;;;;;1.75;0.88;;;18.50;54.40;;;;;;5020524;28;20369;-65
2023/01/19 11:59:43;;;;;;;2.35;1.00;;;18.50;54.50;;;;;;5015729;28;20036;-66
2023/01/19 12:02:34;;;;;;;1.73;0.90;;;18.40;54.50;;;;;;5021837;28;20082;-65
2023/01/19 12:05:09;;;;;;;1.92;1.00;;;18.50;54.60;;;;;;5021931;28;20018;-66
2023/01/19 12:07:36;;;;;;;2.63;1.17;;;18.40;54.50;;;;;;5015293;28;20400;-66
2023/01/19 12:10:27;;;;;;;3.15;1.08;;;18.40;54.60;;;;;;5013861;28;20469;-66
2023/01/19 12:12:55;;;;;;;2.95;1.20;;;18.40;54.60;;;;;;5020698;28;20092;-65
2023/01/19 12:15:28;;;;;;;4.18;1.40;;;18.50;54.70;;;;;;5020903;28;20022;-66
2023/01/19 12:17:59;;;;;;;5.68;1.35;;;18.50;54.70;;;;;;5018443;28;20030;-67
2023/01/19 12:20:31;;;;;;;2.80;1.30;;;18.40;54.60;;;;;;5017927;28;20021;-66
2023/01/19 12:22:59;;;;;;;3.35;1.27;;;18.40;54.70;;;;;;5018245;28;20475;-66
2023/01/19 12:25:41;;;;;;;3.30;1.20;;;18.50;54.70;;;;;;5014996;28;20030;-66
2023/01/19 12:28:11;;;;;;;2.97;1.25;;;18.50;54.70;;;;;;5020703;28;20022;-66
2023/01/19 12:30:37;;;;;;;3.17;1.20;;;18.40;54.70;;;;;;5024515;28;20102;-65
2023/01/19 12:33:33;;;;;;;4.00;2.03;;;18.40;54.60;;;;;;5017762;28;20033;-66
2023/01/19 12:35:59;;;;;;;2.83;1.00;;;18.50;54.70;;;;;;5033770;28;20030;-66
2023/01/19 12:38:49;;;;;;;3.17;1.30;;;18.50;54.70;;;;;;5022205;28;20033;-66
2023/01/19 12:41:20;;;;;;;2.25;1.27;;;18.50;54.70;;;;;;5021175;28;20069;-65
2023/01/19 12:43:48;;;;;;;3.40;1.50;;;18.40;54.70;;;;;;5019236;28;20516;-66
2023/01/19 12:46:30;;;;;;;3.47;1.60;;;18.50;54.70;;;;;;5023281;28;20087;-65
2023/01/19 12:49:10;;;;;;;3.28;1.08;;;18.50;54.70;;;;;;5021423;28;20241;-65
2023/01/19 12:51:36;;;;;;;3.20;1.27;;;18.50;54.70;;;;;;5020494;28;20033;-66
2023/01/19 12:54:07;;;;;;;4.10;1.55;;;18.40;54.70;;;;;;5019632;28;20029;-66
2023/01/19 12:56:36;;;;;;;4.50;1.30;;;18.40;54.70;;;;;;5022968;28;20030;-66
2023/01/19 12:59:04;;;;;;;2.95;1.10;;;18.50;54.70;;;;;;5022688;28;20442;-66
2023/01/19 13:01:29;;;;;;;3.10;1.25;;;18.40;54.70;;;;;;5020051;28;20477;-66
2023/01/19 13:04:24;;;;;;;2.88;1.30;;;18.40;54.70;;;;;;5036274;28;20041;-66